sensor_id;sensor_type;location;lat;lon;timestamp;P1;durP1;ratioP1;P2;durP2;ratioP2
21860;SDS011;11095;48.066;8.540;2023-05-14T00:00:20;18.75;;;14.35;;
21860;SDS011;11095;48.066;8.540;2023-05-14T00:02:46;15.82;;;13.15;;
21860;SDS011;11095;48.066;8.540;2023-05-14T00:05:11;18.02;;;14.40;;
21860;SDS011;11095;48.066;8.540;2023-05-14T00:07:37;19.25;;;15.48;;
21860;SDS011;11095;48.066;8.540;2023-05-14T00:10:03;18.00;;;15.10;;
21860;SDS011;11095;48.066;8.540;2023-05-14T00:12:28;19.35;;;15.10;;
21860;SDS011;11095;48.066;8.540;2023-05-14T00:14:54;18.17;;;14.48;;
21860;SDS011;11095;48.066;8.540;2023-05-14T00:17:20;18.02;;;14.85;;
21860;SDS011;11095;48.066;8.540;2023-05-14T00:19:46;18.30;;;14.40;;
21860;SDS011;11095;48.066;8.540;2023-05-14T00:22:12;17.35;;;13.73;;
21860;SDS011;11095;48.066;8.540;2023-05-14T00:24:38;15.63;;;12.70;;
21860;SDS011;11095;48.066;8.540;2023-05-14T00:27:04;15.98;;;13.32;;
21860;SDS011;11095;48.066;8.540;2023-05-14T00:29:30;19.40;;;13.88;;
21860;SDS011;11095;48.066;8.540;2023-05-14T00:31:56;16.92;;;13.50;;
21860;SDS011;11095;48.066;8.540;2023-05-14T00:34:22;14.48;;;12.60;;
21860;SDS011;11095;48.066;8.540;2023-05-14T00:36:49;14.75;;;12.95;;
21860;SDS011;11095;48.066;8.540;2023-05-14T00:39:15;16.40;;;13.32;;
21860;SDS011;11095;48.066;8.540;2023-05-14T00:41:41;17.65;;;13.68;;
21860;SDS011;11095;48.066;8.540;2023-05-14T00:44:06;16.88;;;13.65;;
21860;SDS011;11095;48.066;8.540;2023-05-14T00:46:32;17.48;;;14.48;;
21860;SDS011;11095;48.066;8.540;2023-05-14T00:48:58;17.27;;;14.15;;
21860;SDS011;11095;48.066;8.540;2023-05-14T00:51:24;18.20;;;14.45;;
21860;SDS011;11095;48.066;8.540;2023-05-14T00:53:50;20.85;;;14.25;;
21860;SDS011;11095;48.066;8.540;2023-05-14T00:56:17;19.00;;;14.40;;
21860;SDS011;11095;48.066;8.540;2023-05-14T00:58:43;17.27;;;13.98;;
21860;SDS011;11095;48.066;8.540;2023-05-14T01:01:09;18.08;;;14.85;;
21860;SDS011;11095;48.066;8.540;2023-05-14T01:03:36;20.50;;;15.85;;
21860;SDS011;11095;48.066;8.540;2023-05-14T01:11:28;21.35;;;15.75;;
21860;SDS011;11095;48.066;8.540;2023-05-14T01:17:04;18.83;;;15.15;;
21860;SDS011;11095;48.066;8.540;2023-05-14T01:19:41;17.63;;;13.77;;
21860;SDS011;11095;48.066;8.540;2023-05-14T01:22:08;20.80;;;16.00;;
21860;SDS011;11095;48.066;8.540;2023-05-14T01:24:35;17.92;;;14.45;;
21860;SDS011;11095;48.066;8.540;2023-05-14T01:27:17;20.45;;;15.80;;
21860;SDS011;11095;48.066;8.540;2023-05-14T01:30:08;17.25;;;13.88;;
21860;SDS011;11095;48.066;8.540;2023-05-14T01:32:39;20.02;;;15.90;;
21860;SDS011;11095;48.066;8.540;2023-05-14T01:35:06;20.08;;;15.90;;
21860;SDS011;11095;48.066;8.540;2023-05-14T01:37:33;17.58;;;14.82;;
21860;SDS011;11095;48.066;8.540;2023-05-14T01:39:59;19.05;;;15.60;;
21860;SDS011;11095;48.066;8.540;2023-05-14T01:42:26;20.90;;;15.82;;
21860;SDS011;11095;48.066;8.540;2023-05-14T01:44:53;19.98;;;15.77;;
21860;SDS011;11095;48.066;8.540;2023-05-14T01:47:19;21.63;;;17.13;;
21860;SDS011;11095;48.066;8.540;2023-05-14T01:49:45;21.20;;;16.77;;
21860;SDS011;11095;48.066;8.540;2023-05-14T01:52:10;21.33;;;16.70;;
21860;SDS011;11095;48.066;8.540;2023-05-14T01:54:36;21.33;;;17.30;;
21860;SDS011;11095;48.066;8.540;2023-05-14T01:57:02;25.08;;;18.13;;
21860;SDS011;11095;48.066;8.540;2023-05-14T01:59:27;21.95;;;18.05;;
21860;SDS011;11095;48.066;8.540;2023-05-14T02:01:54;22.77;;;17.15;;
21860;SDS011;11095;48.066;8.540;2023-05-14T02:04:20;27.13;;;19.52;;
21860;SDS011;11095;48.066;8.540;2023-05-14T02:06:45;23.92;;;19.10;;
21860;SDS011;11095;48.066;8.540;2023-05-14T02:09:11;24.75;;;18.85;;
21860;SDS011;11095;48.066;8.540;2023-05-14T02:11:37;26.38;;;19.45;;
21860;SDS011;11095;48.066;8.540;2023-05-14T02:14:02;26.55;;;19.48;;
21860;SDS011;11095;48.066;8.540;2023-05-14T02:16:28;25.17;;;19.58;;
21860;SDS011;11095;48.066;8.540;2023-05-14T02:18:53;24.77;;;18.33;;
21860;SDS011;11095;48.066;8.540;2023-05-14T02:21:19;24.75;;;18.27;;
21860;SDS011;11095;48.066;8.540;2023-05-14T02:23:44;24.00;;;17.73;;
21860;SDS011;11095;48.066;8.540;2023-05-14T02:26:12;23.20;;;17.77;;
21860;SDS011;11095;48.066;8.540;2023-05-14T02:28:38;24.50;;;17.65;;
21860;SDS011;11095;48.066;8.540;2023-05-14T02:31:03;21.23;;;16.40;;
21860;SDS011;11095;48.066;8.540;2023-05-14T02:33:29;23.52;;;16.67;;
21860;SDS011;11095;48.066;8.540;2023-05-14T02:35:55;20.08;;;15.60;;
21860;SDS011;11095;48.066;8.540;2023-05-14T02:38:21;20.13;;;15.98;;
21860;SDS011;11095;48.066;8.540;2023-05-14T02:40:47;23.70;;;18.60;;
21860;SDS011;11095;48.066;8.540;2023-05-14T02:43:12;26.10;;;18.98;;
21860;SDS011;11095;48.066;8.540;2023-05-14T02:45:38;25.08;;;18.30;;
21860;SDS011;11095;48.066;8.540;2023-05-14T02:48:03;27.75;;;19.17;;
21860;SDS011;11095;48.066;8.540;2023-05-14T02:50:29;25.38;;;18.38;;
21860;SDS011;11095;48.066;8.540;2023-05-14T02:52:55;22.88;;;17.73;;
21860;SDS011;11095;48.066;8.540;2023-05-14T02:55:20;23.95;;;18.73;;
21860;SDS011;11095;48.066;8.540;2023-05-14T02:57:46;27.60;;;20.60;;
21860;SDS011;11095;48.066;8.540;2023-05-14T03:00:12;26.95;;;20.02;;
21860;SDS011;11095;48.066;8.540;2023-05-14T03:02:38;29.63;;;20.73;;
21860;SDS011;11095;48.066;8.540;2023-05-14T03:05:04;30.98;;;20.73;;
21860;SDS011;11095;48.066;8.540;2023-05-14T03:07:29;30.23;;;20.58;;
21860;SDS011;11095;48.066;8.540;2023-05-14T03:09:55;31.42;;;21.77;;
21860;SDS011;11095;48.066;8.540;2023-05-14T03:12:22;26.63;;;19.45;;
21860;SDS011;11095;48.066;8.540;2023-05-14T03:14:47;30.48;;;20.25;;
21860;SDS011;11095;48.066;8.540;2023-05-14T03:17:13;31.83;;;21.88;;
21860;SDS011;11095;48.066;8.540;2023-05-14T03:19:38;32.20;;;21.50;;
21860;SDS011;11095;48.066;8.540;2023-05-14T03:22:04;31.17;;;21.17;;
21860;SDS011;11095;48.066;8.540;2023-05-14T03:24:30;29.17;;;20.38;;
21860;SDS011;11095;48.066;8.540;2023-05-14T03:26:55;29.92;;;21.08;;
21860;SDS011;11095;48.066;8.540;2023-05-14T03:29:21;29.95;;;21.48;;
21860;SDS011;11095;48.066;8.540;2023-05-14T03:31:46;29.17;;;19.63;;
21860;SDS011;11095;48.066;8.540;2023-05-14T03:34:12;28.45;;;19.95;;
21860;SDS011;11095;48.066;8.540;2023-05-14T03:36:38;28.45;;;20.13;;
21860;SDS011;11095;48.066;8.540;2023-05-14T03:39:04;28.92;;;20.13;;
21860;SDS011;11095;48.066;8.540;2023-05-14T03:41:33;27.80;;;20.08;;
21860;SDS011;11095;48.066;8.540;2023-05-14T03:44:00;29.30;;;19.63;;
21860;SDS011;11095;48.066;8.540;2023-05-14T03:46:25;24.85;;;18.27;;
21860;SDS011;11095;48.066;8.540;2023-05-14T03:48:51;25.48;;;18.20;;
21860;SDS011;11095;48.066;8.540;2023-05-14T03:51:17;25.85;;;18.60;;
21860;SDS011;11095;48.066;8.540;2023-05-14T03:53:42;23.50;;;18.00;;
21860;SDS011;11095;48.066;8.540;2023-05-14T03:56:08;25.27;;;18.60;;
21860;SDS011;11095;48.066;8.540;2023-05-14T03:58:33;23.65;;;18.05;;
21860;SDS011;11095;48.066;8.540;2023-05-14T04:00:59;24.17;;;17.98;;
21860;SDS011;11095;48.066;8.540;2023-05-14T04:03:25;26.52;;;18.67;;
21860;SDS011;11095;48.066;8.540;2023-05-14T04:05:51;22.63;;;17.30;;
21860;SDS011;11095;48.066;8.540;2023-05-14T04:08:16;23.17;;;17.40;;
21860;SDS011;11095;48.066;8.540;2023-05-14T04:10:42;24.67;;;18.25;;
21860;SDS011;11095;48.066;8.540;2023-05-14T04:13:08;23.58;;;17.83;;
21860;SDS011;11095;48.066;8.540;2023-05-14T04:15:33;24.08;;;17.73;;
21860;SDS011;11095;48.066;8.540;2023-05-14T04:18:03;24.25;;;18.05;;
21860;SDS011;11095;48.066;8.540;2023-05-14T04:20:29;22.08;;;17.27;;
21860;SDS011;11095;48.066;8.540;2023-05-14T04:22:54;24.95;;;19.00;;
21860;SDS011;11095;48.066;8.540;2023-05-14T04:25:20;26.45;;;18.80;;
21860;SDS011;11095;48.066;8.540;2023-05-14T04:27:46;26.67;;;18.73;;
21860;SDS011;11095;48.066;8.540;2023-05-14T04:30:11;25.08;;;18.27;;
21860;SDS011;11095;48.066;8.540;2023-05-14T04:32:37;27.17;;;19.63;;
21860;SDS011;11095;48.066;8.540;2023-05-14T04:35:03;29.23;;;21.25;;
21860;SDS011;11095;48.066;8.540;2023-05-14T04:37:30;32.35;;;21.52;;
21860;SDS011;11095;48.066;8.540;2023-05-14T04:39:55;32.60;;;22.05;;
21860;SDS011;11095;48.066;8.540;2023-05-14T04:42:21;33.67;;;22.30;;
21860;SDS011;11095;48.066;8.540;2023-05-14T04:44:47;31.70;;;21.90;;
21860;SDS011;11095;48.066;8.540;2023-05-14T04:47:12;32.40;;;22.58;;
21860;SDS011;11095;48.066;8.540;2023-05-14T04:49:38;33.40;;;23.08;;
21860;SDS011;11095;48.066;8.540;2023-05-14T04:52:05;33.15;;;23.33;;
21860;SDS011;11095;48.066;8.540;2023-05-14T04:54:30;34.45;;;22.90;;
21860;SDS011;11095;48.066;8.540;2023-05-14T04:56:56;36.28;;;24.08;;
21860;SDS011;11095;48.066;8.540;2023-05-14T04:59:27;35.17;;;24.00;;
21860;SDS011;11095;48.066;8.540;2023-05-14T05:01:55;35.35;;;23.83;;
21860;SDS011;11095;48.066;8.540;2023-05-14T05:04:22;35.42;;;23.40;;
21860;SDS011;11095;48.066;8.540;2023-05-14T05:06:48;37.63;;;24.05;;
21860;SDS011;11095;48.066;8.540;2023-05-14T05:09:14;36.97;;;24.20;;
21860;SDS011;11095;48.066;8.540;2023-05-14T05:11:41;37.97;;;24.17;;
21860;SDS011;11095;48.066;8.540;2023-05-14T05:14:07;39.83;;;25.02;;
21860;SDS011;11095;48.066;8.540;2023-05-14T05:16:33;37.17;;;23.75;;
21860;SDS011;11095;48.066;8.540;2023-05-14T05:18:59;34.35;;;23.02;;
21860;SDS011;11095;48.066;8.540;2023-05-14T05:21:25;36.22;;;24.35;;
21860;SDS011;11095;48.066;8.540;2023-05-14T05:23:51;35.65;;;23.63;;
21860;SDS011;11095;48.066;8.540;2023-05-14T05:26:16;35.78;;;23.90;;
21860;SDS011;11095;48.066;8.540;2023-05-14T05:28:42;35.03;;;23.23;;
21860;SDS011;11095;48.066;8.540;2023-05-14T05:31:08;37.72;;;23.50;;
21860;SDS011;11095;48.066;8.540;2023-05-14T05:33:34;37.45;;;23.88;;
21860;SDS011;11095;48.066;8.540;2023-05-14T05:35:59;37.03;;;22.95;;
21860;SDS011;11095;48.066;8.540;2023-05-14T05:38:25;36.70;;;22.80;;
21860;SDS011;11095;48.066;8.540;2023-05-14T05:40:51;37.88;;;23.98;;
21860;SDS011;11095;48.066;8.540;2023-05-14T05:43:17;34.78;;;24.02;;
21860;SDS011;11095;48.066;8.540;2023-05-14T05:45:42;35.58;;;23.20;;
21860;SDS011;11095;48.066;8.540;2023-05-14T05:48:09;37.80;;;24.98;;
21860;SDS011;11095;48.066;8.540;2023-05-14T05:50:35;36.10;;;22.85;;
21860;SDS011;11095;48.066;8.540;2023-05-14T05:53:01;36.55;;;24.23;;
21860;SDS011;11095;48.066;8.540;2023-05-14T05:55:27;37.80;;;24.55;;
21860;SDS011;11095;48.066;8.540;2023-05-14T05:57:53;36.13;;;23.27;;
21860;SDS011;11095;48.066;8.540;2023-05-14T06:00:19;35.67;;;22.10;;
21860;SDS011;11095;48.066;8.540;2023-05-14T06:02:45;32.03;;;21.45;;
21860;SDS011;11095;48.066;8.540;2023-05-14T06:05:11;28.08;;;19.38;;
21860;SDS011;11095;48.066;8.540;2023-05-14T06:07:37;28.27;;;19.27;;
21860;SDS011;11095;48.066;8.540;2023-05-14T06:10:03;30.45;;;20.98;;
21860;SDS011;11095;48.066;8.540;2023-05-14T06:12:29;28.50;;;19.95;;
21860;SDS011;11095;48.066;8.540;2023-05-14T06:14:54;27.08;;;19.15;;
21860;SDS011;11095;48.066;8.540;2023-05-14T06:17:22;28.13;;;19.77;;
21860;SDS011;11095;48.066;8.540;2023-05-14T06:19:48;27.48;;;19.60;;
21860;SDS011;11095;48.066;8.540;2023-05-14T06:22:14;26.02;;;18.92;;
21860;SDS011;11095;48.066;8.540;2023-05-14T06:24:40;26.98;;;19.55;;
21860;SDS011;11095;48.066;8.540;2023-05-14T06:27:06;27.83;;;19.60;;
21860;SDS011;11095;48.066;8.540;2023-05-14T06:29:31;28.33;;;19.70;;
21860;SDS011;11095;48.066;8.540;2023-05-14T06:32:00;25.00;;;18.95;;
21860;SDS011;11095;48.066;8.540;2023-05-14T06:34:27;26.42;;;19.27;;
21860;SDS011;11095;48.066;8.540;2023-05-14T06:36:53;26.95;;;19.23;;
21860;SDS011;11095;48.066;8.540;2023-05-14T06:39:18;27.20;;;18.98;;
21860;SDS011;11095;48.066;8.540;2023-05-14T06:41:44;25.52;;;18.50;;
21860;SDS011;11095;48.066;8.540;2023-05-14T06:44:10;26.67;;;18.30;;
21860;SDS011;11095;48.066;8.540;2023-05-14T06:46:35;24.00;;;17.33;;
21860;SDS011;11095;48.066;8.540;2023-05-14T06:49:01;22.60;;;16.55;;
21860;SDS011;11095;48.066;8.540;2023-05-14T06:51:27;23.73;;;17.85;;
21860;SDS011;11095;48.066;8.540;2023-05-14T06:53:53;22.75;;;16.67;;
21860;SDS011;11095;48.066;8.540;2023-05-14T06:56:19;21.42;;;16.40;;
21860;SDS011;11095;48.066;8.540;2023-05-14T06:58:46;22.85;;;16.67;;
21860;SDS011;11095;48.066;8.540;2023-05-14T07:01:12;19.52;;;15.10;;
21860;SDS011;11095;48.066;8.540;2023-05-14T07:03:37;20.85;;;15.77;;
21860;SDS011;11095;48.066;8.540;2023-05-14T07:06:03;18.70;;;14.60;;
21860;SDS011;11095;48.066;8.540;2023-05-14T07:08:30;21.02;;;15.48;;
21860;SDS011;11095;48.066;8.540;2023-05-14T07:10:56;17.40;;;14.38;;
21860;SDS011;11095;48.066;8.540;2023-05-14T07:13:22;18.67;;;15.05;;
21860;SDS011;11095;48.066;8.540;2023-05-14T07:15:48;19.35;;;14.63;;
21860;SDS011;11095;48.066;8.540;2023-05-14T07:18:15;17.33;;;13.40;;
21860;SDS011;11095;48.066;8.540;2023-05-14T07:20:40;17.65;;;13.73;;
21860;SDS011;11095;48.066;8.540;2023-05-14T07:23:06;16.30;;;13.07;;
21860;SDS011;11095;48.066;8.540;2023-05-14T07:25:32;15.20;;;12.82;;
21860;SDS011;11095;48.066;8.540;2023-05-14T07:27:57;16.55;;;12.88;;
21860;SDS011;11095;48.066;8.540;2023-05-14T07:30:23;16.83;;;13.40;;
21860;SDS011;11095;48.066;8.540;2023-05-14T07:32:49;14.23;;;11.70;;
21860;SDS011;11095;48.066;8.540;2023-05-14T07:35:14;17.00;;;12.70;;
21860;SDS011;11095;48.066;8.540;2023-05-14T07:37:40;16.23;;;12.25;;
21860;SDS011;11095;48.066;8.540;2023-05-14T07:40:07;14.85;;;11.63;;
21860;SDS011;11095;48.066;8.540;2023-05-14T07:42:33;14.15;;;11.82;;
21860;SDS011;11095;48.066;8.540;2023-05-14T07:44:58;14.77;;;11.38;;
21860;SDS011;11095;48.066;8.540;2023-05-14T07:47:24;14.60;;;12.07;;
21860;SDS011;11095;48.066;8.540;2023-05-14T07:49:53;14.65;;;11.77;;
21860;SDS011;11095;48.066;8.540;2023-05-14T07:52:19;14.88;;;12.38;;
21860;SDS011;11095;48.066;8.540;2023-05-14T07:54:45;14.55;;;11.60;;
21860;SDS011;11095;48.066;8.540;2023-05-14T07:57:10;15.55;;;12.02;;
21860;SDS011;11095;48.066;8.540;2023-05-14T07:59:36;15.07;;;11.80;;
21860;SDS011;11095;48.066;8.540;2023-05-14T08:02:02;16.17;;;12.20;;
21860;SDS011;11095;48.066;8.540;2023-05-14T08:04:27;13.35;;;10.95;;
21860;SDS011;11095;48.066;8.540;2023-05-14T08:06:53;14.25;;;11.50;;
21860;SDS011;11095;48.066;8.540;2023-05-14T08:09:20;13.07;;;10.63;;
21860;SDS011;11095;48.066;8.540;2023-05-14T08:11:45;12.40;;;10.80;;
21860;SDS011;11095;48.066;8.540;2023-05-14T08:14:11;11.60;;;9.73;;
21860;SDS011;11095;48.066;8.540;2023-05-14T08:16:37;11.65;;;9.80;;
21860;SDS011;11095;48.066;8.540;2023-05-14T08:19:02;10.82;;;9.30;;
21860;SDS011;11095;48.066;8.540;2023-05-14T08:21:28;10.70;;;9.25;;
21860;SDS011;11095;48.066;8.540;2023-05-14T08:23:54;12.45;;;8.70;;
21860;SDS011;11095;48.066;8.540;2023-05-14T08:26:19;10.32;;;8.32;;
21860;SDS011;11095;48.066;8.540;2023-05-14T08:28:45;10.57;;;8.40;;
21860;SDS011;11095;48.066;8.540;2023-05-14T08:31:11;9.90;;;8.48;;
21860;SDS011;11095;48.066;8.540;2023-05-14T08:33:38;9.05;;;7.88;;
21860;SDS011;11095;48.066;8.540;2023-05-14T08:36:04;9.30;;;8.30;;
21860;SDS011;11095;48.066;8.540;2023-05-14T08:38:31;9.77;;;8.38;;
21860;SDS011;11095;48.066;8.540;2023-05-14T08:40:57;9.13;;;8.15;;
21860;SDS011;11095;48.066;8.540;2023-05-14T08:43:30;9.48;;;7.10;;
21860;SDS011;11095;48.066;8.540;2023-05-14T08:46:06;8.13;;;7.10;;
21860;SDS011;11095;48.066;8.540;2023-05-14T08:48:34;8.90;;;7.57;;
21860;SDS011;11095;48.066;8.540;2023-05-14T08:51:01;8.38;;;7.40;;
21860;SDS011;11095;48.066;8.540;2023-05-14T08:53:27;9.52;;;8.52;;
21860;SDS011;11095;48.066;8.540;2023-05-14T08:55:54;9.73;;;8.52;;
21860;SDS011;11095;48.066;8.540;2023-05-14T08:58:20;10.07;;;8.60;;
21860;SDS011;11095;48.066;8.540;2023-05-14T09:00:46;9.32;;;7.90;;
21860;SDS011;11095;48.066;8.540;2023-05-14T09:03:11;10.80;;;8.57;;
21860;SDS011;11095;48.066;8.540;2023-05-14T09:05:38;10.80;;;9.32;;
21860;SDS011;11095;48.066;8.540;2023-05-14T09:08:04;11.40;;;9.88;;
21860;SDS011;11095;48.066;8.540;2023-05-14T09:10:30;11.80;;;10.40;;
21860;SDS011;11095;48.066;8.540;2023-05-14T09:12:56;11.63;;;10.48;;
21860;SDS011;11095;48.066;8.540;2023-05-14T09:15:22;11.52;;;10.20;;
21860;SDS011;11095;48.066;8.540;2023-05-14T09:17:49;12.05;;;10.13;;
21860;SDS011;11095;48.066;8.540;2023-05-14T09:20:15;12.77;;;9.85;;
21860;SDS011;11095;48.066;8.540;2023-05-14T09:22:40;11.85;;;9.57;;
21860;SDS011;11095;48.066;8.540;2023-05-14T09:25:07;10.45;;;9.27;;
21860;SDS011;11095;48.066;8.540;2023-05-14T09:27:35;10.95;;;9.75;;
21860;SDS011;11095;48.066;8.540;2023-05-14T09:30:03;11.73;;;10.00;;
21860;SDS011;11095;48.066;8.540;2023-05-14T09:32:34;10.23;;;9.23;;
21860;SDS011;11095;48.066;8.540;2023-05-14T09:35:16;10.95;;;8.73;;
21860;SDS011;11095;48.066;8.540;2023-05-14T09:37:47;9.77;;;8.68;;
21860;SDS011;11095;48.066;8.540;2023-05-14T09:40:14;10.80;;;9.20;;
21860;SDS011;11095;48.066;8.540;2023-05-14T09:42:41;9.52;;;8.52;;
21860;SDS011;11095;48.066;8.540;2023-05-14T09:45:07;10.32;;;8.68;;
21860;SDS011;11095;48.066;8.540;2023-05-14T09:47:34;10.55;;;8.43;;
21860;SDS011;11095;48.066;8.540;2023-05-14T09:50:03;10.43;;;8.70;;
21860;SDS011;11095;48.066;8.540;2023-05-14T09:52:30;10.20;;;8.73;;
21860;SDS011;11095;48.066;8.540;2023-05-14T09:54:55;10.75;;;9.07;;
21860;SDS011;11095;48.066;8.540;2023-05-14T09:57:21;11.85;;;9.30;;
21860;SDS011;11095;48.066;8.540;2023-05-14T09:59:47;9.70;;;8.40;;
21860;SDS011;11095;48.066;8.540;2023-05-14T10:02:23;9.65;;;8.65;;
21860;SDS011;11095;48.066;8.540;2023-05-14T10:04:51;11.35;;;10.07;;
21860;SDS011;11095;48.066;8.540;2023-05-14T10:07:20;10.63;;;9.48;;
21860;SDS011;11095;48.066;8.540;2023-05-14T10:09:51;11.10;;;9.32;;
21860;SDS011;11095;48.066;8.540;2023-05-14T10:12:22;10.07;;;8.88;;
21860;SDS011;11095;48.066;8.540;2023-05-14T10:14:52;11.20;;;9.18;;
21860;SDS011;11095;48.066;8.540;2023-05-14T10:17:23;9.57;;;8.57;;
21860;SDS011;11095;48.066;8.540;2023-05-14T10:19:55;10.48;;;8.63;;
21860;SDS011;11095;48.066;8.540;2023-05-14T10:22:22;9.32;;;8.27;;
21860;SDS011;11095;48.066;8.540;2023-05-14T10:24:51;9.00;;;8.10;;
21860;SDS011;11095;48.066;8.540;2023-05-14T10:27:19;9.95;;;8.10;;
21860;SDS011;11095;48.066;8.540;2023-05-14T10:29:53;9.52;;;8.38;;
21860;SDS011;11095;48.066;8.540;2023-05-14T10:32:23;10.65;;;8.52;;
21860;SDS011;11095;48.066;8.540;2023-05-14T10:34:50;9.48;;;8.45;;
21860;SDS011;11095;48.066;8.540;2023-05-14T10:37:26;8.90;;;7.43;;
21860;SDS011;11095;48.066;8.540;2023-05-14T10:39:58;8.23;;;7.35;;
21860;SDS011;11095;48.066;8.540;2023-05-14T10:42:26;7.63;;;6.80;;
21860;SDS011;11095;48.066;8.540;2023-05-14T10:45:00;7.55;;;6.75;;
21860;SDS011;11095;48.066;8.540;2023-05-14T10:47:31;9.02;;;7.00;;
21860;SDS011;11095;48.066;8.540;2023-05-14T10:49:58;7.03;;;6.32;;
21860;SDS011;11095;48.066;8.540;2023-05-14T10:52:26;7.28;;;6.43;;
21860;SDS011;11095;48.066;8.540;2023-05-14T10:54:55;7.25;;;6.55;;
21860;SDS011;11095;48.066;8.540;2023-05-14T10:57:26;8.15;;;6.97;;
21860;SDS011;11095;48.066;8.540;2023-05-14T10:59:55;7.93;;;7.13;;
21860;SDS011;11095;48.066;8.540;2023-05-14T11:02:22;8.20;;;7.30;;
21860;SDS011;11095;48.066;8.540;2023-05-14T11:05:09;7.78;;;6.95;;
21860;SDS011;11095;48.066;8.540;2023-05-14T11:07:41;7.85;;;7.05;;
21860;SDS011;11095;48.066;8.540;2023-05-14T11:10:09;8.85;;;7.93;;
21860;SDS011;11095;48.066;8.540;2023-05-14T11:12:38;7.85;;;7.05;;
21860;SDS011;11095;48.066;8.540;2023-05-14T11:15:09;8.43;;;7.53;;
21860;SDS011;11095;48.066;8.540;2023-05-14T11:17:37;9.02;;;7.35;;
21860;SDS011;11095;48.066;8.540;2023-05-14T11:20:05;7.70;;;6.90;;
21860;SDS011;11095;48.066;8.540;2023-05-14T11:22:35;8.45;;;7.55;;
21860;SDS011;11095;48.066;8.540;2023-05-14T11:25:02;8.45;;;7.35;;
21860;SDS011;11095;48.066;8.540;2023-05-14T11:27:28;7.90;;;7.10;;
21860;SDS011;11095;48.066;8.540;2023-05-14T11:29:56;8.30;;;7.22;;
21860;SDS011;11095;48.066;8.540;2023-05-14T11:32:22;7.68;;;6.82;;
21860;SDS011;11095;48.066;8.540;2023-05-14T11:34:48;7.68;;;6.88;;
21860;SDS011;11095;48.066;8.540;2023-05-14T11:37:14;7.65;;;6.90;;
21860;SDS011;11095;48.066;8.540;2023-05-14T11:39:48;7.10;;;6.32;;
21860;SDS011;11095;48.066;8.540;2023-05-14T11:42:15;6.00;;;5.40;;
21860;SDS011;11095;48.066;8.540;2023-05-14T11:44:43;5.72;;;5.03;;
21860;SDS011;11095;48.066;8.540;2023-05-14T11:47:10;5.95;;;5.35;;
21860;SDS011;11095;48.066;8.540;2023-05-14T11:49:35;5.20;;;4.70;;
21860;SDS011;11095;48.066;8.540;2023-05-14T11:52:05;5.57;;;5.07;;
21860;SDS011;11095;48.066;8.540;2023-05-14T11:54:32;6.45;;;5.03;;
21860;SDS011;11095;48.066;8.540;2023-05-14T11:57:00;6.68;;;5.60;;
21860;SDS011;11095;48.066;8.540;2023-05-14T11:59:28;6.35;;;5.70;;
21860;SDS011;11095;48.066;8.540;2023-05-14T12:01:55;5.82;;;5.07;;
21860;SDS011;11095;48.066;8.540;2023-05-14T12:04:22;6.32;;;5.50;;
21860;SDS011;11095;48.066;8.540;2023-05-14T12:06:48;6.85;;;5.40;;
21860;SDS011;11095;48.066;8.540;2023-05-14T12:09:21;5.45;;;4.95;;
21860;SDS011;11095;48.066;8.540;2023-05-14T12:11:47;5.30;;;4.80;;
21860;SDS011;11095;48.066;8.540;2023-05-14T12:14:18;5.05;;;4.55;;
21860;SDS011;11095;48.066;8.540;2023-05-14T12:16:45;5.43;;;4.93;;
21860;SDS011;11095;48.066;8.540;2023-05-14T12:19:15;5.88;;;4.82;;
21860;SDS011;11095;48.066;8.540;2023-05-14T12:21:42;5.22;;;4.72;;
21860;SDS011;11095;48.066;8.540;2023-05-14T12:24:10;5.38;;;4.78;;
21860;SDS011;11095;48.066;8.540;2023-05-14T12:26:37;5.45;;;4.90;;
21860;SDS011;11095;48.066;8.540;2023-05-14T12:29:04;5.45;;;4.95;;
21860;SDS011;11095;48.066;8.540;2023-05-14T12:31:33;7.93;;;5.70;;
21860;SDS011;11095;48.066;8.540;2023-05-14T12:34:00;6.78;;;6.07;;
21860;SDS011;11095;48.066;8.540;2023-05-14T12:36:29;6.50;;;5.53;;
21860;SDS011;11095;48.066;8.540;2023-05-14T12:39:00;6.93;;;5.28;;
21860;SDS011;11095;48.066;8.540;2023-05-14T12:41:27;5.22;;;4.72;;
21860;SDS011;11095;48.066;8.540;2023-05-14T12:43:54;5.30;;;4.80;;
21860;SDS011;11095;48.066;8.540;2023-05-14T12:46:19;4.30;;;3.90;;
21860;SDS011;11095;48.066;8.540;2023-05-14T12:48:45;4.70;;;4.30;;
21860;SDS011;11095;48.066;8.540;2023-05-14T12:51:11;4.82;;;4.40;;
21860;SDS011;11095;48.066;8.540;2023-05-14T12:53:36;5.28;;;4.78;;
21860;SDS011;11095;48.066;8.540;2023-05-14T12:56:02;5.25;;;4.75;;
21860;SDS011;11095;48.066;8.540;2023-05-14T12:58:28;4.63;;;4.22;;
21860;SDS011;11095;48.066;8.540;2023-05-14T13:00:54;4.88;;;4.38;;
21860;SDS011;11095;48.066;8.540;2023-05-14T13:03:20;4.70;;;3.90;;
21860;SDS011;11095;48.066;8.540;2023-05-14T13:05:45;4.60;;;4.20;;
21860;SDS011;11095;48.066;8.540;2023-05-14T13:08:11;4.90;;;4.40;;
21860;SDS011;11095;48.066;8.540;2023-05-14T13:10:41;4.30;;;3.90;;
21860;SDS011;11095;48.066;8.540;2023-05-14T13:13:08;4.57;;;3.83;;
21860;SDS011;11095;48.066;8.540;2023-05-14T13:15:34;4.35;;;3.95;;
21860;SDS011;11095;48.066;8.540;2023-05-14T13:18:00;4.85;;;4.13;;
21860;SDS011;11095;48.066;8.540;2023-05-14T13:20:26;4.63;;;3.72;;
21860;SDS011;11095;48.066;8.540;2023-05-14T13:22:51;4.45;;;3.72;;
21860;SDS011;11095;48.066;8.540;2023-05-14T13:25:18;4.10;;;3.70;;
21860;SDS011;11095;48.066;8.540;2023-05-14T13:27:43;4.28;;;3.88;;
21860;SDS011;11095;48.066;8.540;2023-05-14T13:30:09;5.25;;;4.75;;
21860;SDS011;11095;48.066;8.540;2023-05-14T13:32:36;5.25;;;4.05;;
21860;SDS011;11095;48.066;8.540;2023-05-14T13:35:01;4.35;;;3.95;;
21860;SDS011;11095;48.066;8.540;2023-05-14T13:37:27;5.10;;;4.60;;
21860;SDS011;11095;48.066;8.540;2023-05-14T13:39:52;6.00;;;5.15;;
21860;SDS011;11095;48.066;8.540;2023-05-14T13:42:18;9.70;;;4.68;;
21860;SDS011;11095;48.066;8.540;2023-05-14T13:44:44;6.38;;;5.40;;
21860;SDS011;11095;48.066;8.540;2023-05-14T13:47:09;5.20;;;4.70;;
21860;SDS011;11095;48.066;8.540;2023-05-14T13:49:35;5.95;;;5.35;;
21860;SDS011;11095;48.066;8.540;2023-05-14T13:52:01;5.78;;;5.28;;
21860;SDS011;11095;48.066;8.540;2023-05-14T13:54:26;4.90;;;4.40;;
21860;SDS011;11095;48.066;8.540;2023-05-14T13:56:52;3.20;;;2.90;;
21860;SDS011;11095;48.066;8.540;2023-05-14T13:59:17;3.17;;;2.60;;
21860;SDS011;11095;48.066;8.540;2023-05-14T14:01:44;3.92;;;2.50;;
21860;SDS011;11095;48.066;8.540;2023-05-14T14:04:10;3.15;;;2.30;;
21860;SDS011;11095;48.066;8.540;2023-05-14T14:06:35;2.38;;;1.95;;
21860;SDS011;11095;48.066;8.540;2023-05-14T14:09:01;2.13;;;1.92;;
21860;SDS011;11095;48.066;8.540;2023-05-14T14:11:26;2.97;;;2.40;;
21860;SDS011;11095;48.066;8.540;2023-05-14T14:13:52;3.58;;;2.67;;
21860;SDS011;11095;48.066;8.540;2023-05-14T14:16:18;3.35;;;2.85;;
21860;SDS011;11095;48.066;8.540;2023-05-14T14:18:44;3.28;;;2.80;;
21860;SDS011;11095;48.066;8.540;2023-05-14T14:21:09;3.28;;;2.97;;
21860;SDS011;11095;48.066;8.540;2023-05-14T14:23:36;2.78;;;2.58;;
21860;SDS011;11095;48.066;8.540;2023-05-14T14:26:01;3.08;;;2.65;;
21860;SDS011;11095;48.066;8.540;2023-05-14T14:28:27;2.60;;;2.40;;
21860;SDS011;11095;48.066;8.540;2023-05-14T14:30:53;2.50;;;2.30;;
21860;SDS011;11095;48.066;8.540;2023-05-14T14:33:19;2.30;;;2.10;;
21860;SDS011;11095;48.066;8.540;2023-05-14T14:35:44;2.15;;;1.95;;